UNNTUUOO

Guest
Details From UNNT - Novosibirsk Tolmachevo
To UUOO - CHERTOVITSKOYE
Flight Number -
Tags decoded
Created
Modified
Stats Distance 1,541 nm / 2,853 km
Max Altitude 0 ft / 0 m
Waypoints 2
Social Downloads 1
Likes 0
Share VATSIM

Download

Looking for another format? Having issues loading an existing format? Contact us
Advertisement - Login to hide

Notes

Requested: UNNT UUOO

Route

UNNT UUOO

ID Type Via Altitude Latitude Longitude Leg Dist Tot Dist Heading (true) Name
O UNNT APT - 0 ft / 0 m 55.01302˚ 82.65107˚ - 0 nm - Novosibirsk Tolmachevo
O UUOO APT - 0 ft / 0 m 51.81421˚ 39.22959˚ 1540 nm 1540 nm 281° / 246° CHERTOVITSKOYE

Altitude Profile

Advertisement - Login to hide

Weather


0- 5 10 15 20 25 30 35+ Temperature / ° C

Clouds and Precipitation
Forecast for 2017-12-14 12:00 UTC. Updated an hour ago

Ground ~20,000 ft ~40,000 ft Winds

UNNT

Details ICAO UNNT (OVB)
Name Novosibirsk Tolmachevo
Region Russia
Timezone Asia/Novosibirsk (UTC+7.0)
Stats Elevation 365 ft / 111 m (AMSL)
Location 55.013017° 82.651065°
Runways 2
Magnetic Variation 8.864° E

METAR

UNNT 141000Z 19003MPS 7000 -SN SCT010 BKN020 M18/M21 Q1050 R25/490150 R34/490340 NOSIG RMK QFE777/1036

Decode

TAF

TAF UNNT 140800Z 1409/1509 22003MPS 9999 -SN BKN011 TEMPO 1414/1504 3100 -SN BR BKN005 FM150500 20003MPS CAVOK

Decode

Departure Runways

ID Width Length Bearing (true) Bearing (mag) Surface Threshold Offset Overrun Length
07 190 ft / 58 m 11,817 ft / 3,602 m 81.00° 72.14° Asphalt 0 ft / 0 m 250 ft / 76 m
07L 304 ft / 93 m 9,877 ft / 3,011 m 81.01° 72.15° Grass 0 ft / 0 m 0 ft / 0 m
25 190 ft / 58 m 11,817 ft / 3,602 m 261.04° 252.18° Asphalt 0 ft / 0 m 225 ft / 69 m
25R 304 ft / 93 m 9,877 ft / 3,011 m 261.05° 252.19° Grass 0 ft / 0 m 0 ft / 0 m

UUOO

Details ICAO UUOO (VOZ)
Name CHERTOVITSKOYE
Region Russia
Timezone Europe/Moscow (UTC+3.0)
Stats Elevation 514 ft / 157 m (AMSL)
Location 51.814211° 39.229588°
Runways 1
Magnetic Variation 9.739° E

METAR

UUOO 141000Z 15007MPS 1700 R12/1700N DZ BR OVC004 05/05 Q1010 R12/290050 NOSIG RMK QFE744

Decode

TAF

Not found

Destination Runways

ID Width Length Bearing (true) Bearing (mag) Surface Threshold Offset Overrun Length
13 161 ft / 49 m 7,516 ft / 2,291 m 130.86° 121.12° Concrete 230 ft / 70 m 0 ft / 0 m
31 161 ft / 49 m 7,516 ft / 2,291 m 310.88° 301.14° Concrete 203 ft / 62 m 0 ft / 0 m

Approach Navaids

Runway Type Ident Frequency Range Bearing (true) Bearing (mag) Slope Elevation
13 Localiser IWR 110.50 MHz 18 nm / 33 km 129.47° 119.73° - 514 ft / 157 m (AMSL)
13 Glidescope IWR 110.50 MHz 10 nm / 19 km 130.88° 121.14° 2.70° 514 ft / 157 m (AMSL)
31 Localiser IAP 111.90 MHz 18 nm / 33 km 311.64° 301.90° - 514 ft / 157 m (AMSL)
31 Glidescope IAP 111.90 MHz 10 nm / 19 km 310.88° 301.14° 2.70° 514 ft / 157 m (AMSL)

Popular Alternatives